Time;durP1;ratioP1;P1;durP2;ratioP2;P2;SDS_P1;SDS_P2;PMS_P1;PMS_P2;Temp;Humidity;BMP_temperature;BMP_pressure;BME280_temperature;BME280_humidity;BME280_pressure;Samples;Min_cycle;Max_cycle;Signal;HPM_P1;HPM_P2
2022/03/05 00:02:02;;;;;;;32.47;20.95;;;-0.10;99.90;;;;;;5060432;28;20057;-79
2022/03/05 00:04:28;;;;;;;38.10;19.38;;;-0.10;99.90;;;;;;5071129;28;20039;-79
2022/03/05 00:06:54;;;;;;;38.38;22.52;;;-0.20;99.90;;;;;;5072303;28;20120;-79
2022/03/05 00:09:20;;;;;;;41.35;21.48;;;-0.20;99.90;;;;;;5052294;28;20040;-79
2022/03/05 00:11:45;;;;;;;33.58;20.98;;;-0.20;99.90;;;;;;5074972;28;20051;-79
2022/03/05 00:14:12;;;;;;;35.55;20.38;;;-0.20;99.90;;;;;;5073494;28;20044;-79
2022/03/05 00:16:38;;;;;;;36.15;20.00;;;-0.20;99.90;;;;;;5070777;28;20052;-79
2022/03/05 00:19:04;;;;;;;39.28;20.67;;;-0.20;99.90;;;;;;5070515;28;20044;-79
2022/03/05 00:21:30;;;;;;;35.10;20.63;;;-0.20;99.90;;;;;;5088482;28;20044;-79
2022/03/05 00:23:55;;;;;;;35.90;19.98;;;-0.20;99.90;;;;;;5105406;27;20459;-79
2022/03/05 00:26:21;;;;;;;34.00;21.33;;;-0.20;99.90;;;;;;5070520;28;20075;-79
2022/03/05 00:28:47;;;;;;;33.08;19.40;;;-0.20;99.90;;;;;;5071266;28;20048;-79
2022/03/05 00:31:13;;;;;;;34.35;19.20;;;-0.20;99.90;;;;;;5069504;28;20048;-79
2022/03/05 00:33:40;;;;;;;39.53;22.10;;;-0.30;99.90;;;;;;5070480;28;20523;-79
2022/03/05 00:36:06;;;;;;;34.85;20.50;;;-0.30;99.90;;;;;;5069738;28;20051;-79
2022/03/05 00:38:37;;;;;;;35.95;19.88;;;-0.30;99.90;;;;;;5068212;28;20063;-79
2022/03/05 00:41:09;;;;;;;42.15;20.98;;;-0.30;99.90;;;;;;5108458;28;20044;-79
2022/03/05 00:43:35;;;;;;;36.00;19.50;;;-0.30;99.90;;;;;;5073806;28;20043;-79
2022/03/05 00:46:00;;;;;;;35.45;20.48;;;-0.30;99.90;;;;;;5070008;28;20507;-79
2022/03/05 00:48:26;;;;;;;39.47;20.10;;;-0.40;99.90;;;;;;5055970;28;20120;-79
2022/03/05 00:50:52;;;;;;;41.92;22.27;;;-0.30;99.90;;;;;;5068407;28;20044;-79
2022/03/05 00:53:18;;;;;;;43.60;24.02;;;-0.30;99.90;;;;;;5070322;28;20457;-79
2022/03/05 00:55:44;;;;;;;38.33;22.17;;;-0.40;99.90;;;;;;5102409;27;20041;-79
2022/03/05 00:58:10;;;;;;;40.55;20.70;;;-0.40;99.90;;;;;;5069491;28;20059;-79
2022/03/05 01:00:36;;;;;;;36.22;21.88;;;-0.40;99.90;;;;;;5101320;27;20047;-79
2022/03/05 01:03:02;;;;;;;39.08;21.60;;;-0.40;99.90;;;;;;5095893;28;20044;-79
2022/03/05 01:05:28;;;;;;;36.58;20.13;;;-0.40;99.90;;;;;;5104129;27;20044;-79
2022/03/05 01:07:53;;;;;;;42.20;20.08;;;-0.40;99.90;;;;;;5069566;28;20350;-80
2022/03/05 01:10:19;;;;;;;34.22;20.00;;;-0.40;99.90;;;;;;5052979;28;20040;-79
2022/03/05 01:12:46;;;;;;;33.90;18.48;;;-0.40;99.90;;;;;;5101257;27;20163;-79
2022/03/05 01:15:12;;;;;;;40.72;19.77;;;-0.40;99.90;;;;;;5085255;28;20051;-79
2022/03/05 01:17:37;;;;;;;37.05;18.70;;;-0.40;99.90;;;;;;5089292;28;20063;-79
2022/03/05 01:20:04;;;;;;;30.38;19.33;;;-0.40;99.90;;;;;;5065709;28;20044;-79
2022/03/05 01:22:30;;;;;;;29.88;19.23;;;-0.50;99.90;;;;;;5072105;28;20092;-80
2022/03/05 01:24:55;;;;;;;24.88;16.60;;;-0.50;99.90;;;;;;5106223;27;20035;-80
2022/03/05 01:27:22;;;;;;;39.17;20.35;;;-0.50;99.90;;;;;;5075508;28;20112;-79
2022/03/05 01:29:48;;;;;;;29.90;17.25;;;-0.50;99.90;;;;;;5076692;28;20119;-79
2022/03/05 01:32:14;;;;;;;38.20;18.60;;;-0.50;99.90;;;;;;5077322;28;20039;-79
2022/03/05 01:34:39;;;;;;;31.45;20.33;;;-0.50;99.90;;;;;;5103034;27;20081;-79
2022/03/05 01:37:05;;;;;;;38.25;19.48;;;-0.60;99.90;;;;;;5069722;28;20044;-79
2022/03/05 01:39:32;;;;;;;35.53;19.27;;;-0.60;99.90;;;;;;5070080;28;20542;-80
2022/03/05 01:41:57;;;;;;;35.95;19.55;;;-0.60;99.90;;;;;;5070098;28;20046;-79
2022/03/05 01:44:24;;;;;;;37.97;19.55;;;-0.60;99.90;;;;;;5067601;28;20401;-79
2022/03/05 01:46:50;;;;;;;32.38;19.05;;;-0.60;99.90;;;;;;5067052;28;20043;-78
2022/03/05 01:49:16;;;;;;;33.78;19.20;;;-0.60;99.90;;;;;;5069087;28;20051;-80
2022/03/05 01:51:43;;;;;;;41.97;19.88;;;-0.60;99.90;;;;;;5088662;28;20563;-79
2022/03/05 01:54:09;;;;;;;28.85;18.00;;;-0.70;99.90;;;;;;5097683;28;20485;-79
2022/03/05 01:56:37;;;;;;;34.72;18.85;;;-0.70;99.90;;;;;;5070723;28;20052;-79
2022/03/05 01:59:03;;;;;;;32.33;19.63;;;-0.70;99.90;;;;;;5069838;28;20048;-79
2022/03/05 02:01:30;;;;;;;34.60;20.00;;;-0.80;99.90;;;;;;5067729;28;20040;-79
2022/03/05 02:03:56;;;;;;;36.65;18.00;;;-0.80;99.90;;;;;;5101624;28;20060;-79
2022/03/05 02:06:23;;;;;;;40.03;20.33;;;-0.80;99.90;;;;;;5101030;28;20059;-79
2022/03/05 02:08:49;;;;;;;28.92;18.98;;;-0.80;99.90;;;;;;5102848;28;20627;-79
2022/03/05 02:11:15;;;;;;;33.80;20.85;;;-0.80;99.90;;;;;;5087072;28;20056;-79
2022/03/05 02:13:41;;;;;;;31.88;17.15;;;-0.80;99.90;;;;;;5074744;28;20104;-79
2022/03/05 02:16:08;;;;;;;32.42;19.00;;;-0.80;99.90;;;;;;5067138;28;20059;-79
2022/03/05 02:18:36;;;;;;;30.75;17.13;;;-0.80;99.90;;;;;;5086634;28;20051;-78
2022/03/05 02:21:02;;;;;;;33.53;18.58;;;-0.80;99.90;;;;;;5085996;28;20051;-79
2022/03/05 02:23:27;;;;;;;28.15;18.52;;;-0.80;99.90;;;;;;5067056;28;20044;-79
2022/03/05 02:25:58;;;;;;;29.60;17.33;;;-0.80;99.90;;;;;;5068632;28;20048;-79
2022/03/05 02:28:26;;;;;;;35.45;19.38;;;-0.70;99.90;;;;;;5101236;28;20523;-79
2022/03/05 02:30:58;;;;;;;32.55;17.92;;;-0.80;99.90;;;;;;5097395;28;20055;-79
2022/03/05 02:33:41;;;;;;;31.42;18.13;;;-0.80;99.90;;;;;;5076965;28;20132;-79
2022/03/05 02:36:07;;;;;;;30.30;18.88;;;-0.90;99.90;;;;;;5072538;28;20055;-79
2022/03/05 02:38:33;;;;;;;31.30;18.98;;;-0.90;99.90;;;;;;5071731;28;20662;-79
2022/03/05 02:40:59;;;;;;;36.10;19.92;;;-0.90;99.90;;;;;;5073123;28;20044;-79
2022/03/05 02:43:26;;;;;;;38.17;21.75;;;-0.90;99.90;;;;;;5104750;28;20044;-79
2022/03/05 02:45:52;;;;;;;39.85;22.15;;;-0.90;99.90;;;;;;5072495;28;20830;-79
2022/03/05 02:48:19;;;;;;;35.65;20.42;;;-0.90;99.90;;;;;;5098256;27;20567;-79
2022/03/05 02:50:46;;;;;;;36.15;20.60;;;-0.90;99.90;;;;;;5103317;27;20051;-79
2022/03/05 02:53:12;;;;;;;39.08;19.52;;;-0.90;99.90;;;;;;5072870;28;20052;-79
2022/03/05 02:55:40;;;;;;;38.42;19.73;;;-0.90;99.90;;;;;;5084859;28;20489;-78
2022/03/05 02:58:06;;;;;;;33.70;20.67;;;-0.90;99.90;;;;;;5088857;28;20174;-79
2022/03/05 03:00:33;;;;;;;42.75;22.40;;;-0.90;99.90;;;;;;5076799;28;20089;-77
2022/03/05 03:02:59;;;;;;;43.28;21.70;;;-0.90;99.90;;;;;;5072379;28;20127;-77
2022/03/05 03:05:25;;;;;;;37.60;20.27;;;-0.90;99.90;;;;;;5071097;28;20512;-79
2022/03/05 03:07:52;;;;;;;41.25;21.73;;;-1.00;99.90;;;;;;5086557;28;20042;-78
2022/03/05 03:10:18;;;;;;;37.03;21.27;;;-0.90;99.90;;;;;;5053854;28;20048;-78
2022/03/05 03:12:44;;;;;;;42.33;22.50;;;-0.90;99.90;;;;;;5057618;28;20044;-79
2022/03/05 03:15:14;;;;;;;32.60;20.95;;;-0.90;99.90;;;;;;5103830;27;20044;-80
2022/03/05 03:17:40;;;;;;;41.15;20.70;;;-0.80;99.90;;;;;;5075715;28;20055;-80
2022/03/05 03:20:07;;;;;;;41.90;20.83;;;-0.90;99.90;;;;;;5071140;28;20050;-79
2022/03/05 03:22:33;;;;;;;36.88;21.83;;;-0.90;99.90;;;;;;5069703;28;20523;-80
2022/03/05 03:24:59;;;;;;;40.15;21.25;;;-0.90;99.90;;;;;;5106862;27;20048;-79
2022/03/05 03:27:24;;;;;;;37.75;22.67;;;-0.90;99.90;;;;;;5071975;28;20044;-79
2022/03/05 03:29:50;;;;;;;38.50;22.10;;;-0.90;99.90;;;;;;5072213;28;20118;-80
2022/03/05 03:32:15;;;;;;;36.80;21.98;;;-1.00;99.90;;;;;;5071675;28;20075;-80
2022/03/05 03:34:42;;;;;;;41.03;23.15;;;-1.00;99.90;;;;;;5068754;28;20044;-79
2022/03/05 03:37:08;;;;;;;38.95;21.17;;;-1.00;99.90;;;;;;5071665;28;20047;-79
2022/03/05 03:39:33;;;;;;;40.70;22.25;;;-1.10;99.90;;;;;;5094025;28;20514;-79
2022/03/05 03:41:59;;;;;;;32.53;20.48;;;-1.00;99.90;;;;;;5072900;28;20560;-79
2022/03/05 03:44:26;;;;;;;37.47;18.13;;;-1.00;99.90;;;;;;5070298;28;20046;-79
2022/03/05 03:46:53;;;;;;;38.80;21.52;;;-1.00;99.90;;;;;;5085749;28;20060;-80
2022/03/05 03:49:19;;;;;;;34.70;20.67;;;-1.00;99.90;;;;;;5074283;28;20051;-79
2022/03/05 03:51:44;;;;;;;33.17;19.65;;;-1.00;99.90;;;;;;5104285;28;20051;-78
2022/03/05 03:54:10;;;;;;;39.63;21.10;;;-0.90;99.90;;;;;;5071371;28;20125;-77
2022/03/05 03:56:36;;;;;;;41.33;20.42;;;-0.90;99.90;;;;;;5075609;28;20459;-78
2022/03/05 03:59:02;;;;;;;37.55;21.08;;;-0.90;99.90;;;;;;5071398;28;20123;-79
2022/03/05 04:01:28;;;;;;;38.00;22.00;;;-0.90;99.90;;;;;;5071290;28;20051;-79
2022/03/05 04:03:54;;;;;;;32.55;20.35;;;-0.90;99.90;;;;;;5068664;28;20055;-79
2022/03/05 04:06:19;;;;;;;30.98;18.48;;;-0.90;99.90;;;;;;5070614;28;20055;-80
2022/03/05 04:08:45;;;;;;;36.80;20.13;;;-1.00;99.90;;;;;;5071845;28;20070;-79
2022/03/05 04:11:13;;;;;;;38.25;20.42;;;-1.00;99.90;;;;;;5069432;28;20039;-79
2022/03/05 04:13:40;;;;;;;38.08;22.15;;;-1.00;99.90;;;;;;5070035;28;20051;-79
2022/03/05 04:16:06;;;;;;;42.15;21.52;;;-1.00;99.90;;;;;;5087241;28;20497;-79
2022/03/05 04:18:33;;;;;;;35.47;21.25;;;-1.00;99.90;;;;;;5069546;28;20056;-79
2022/03/05 04:21:00;;;;;;;39.15;20.95;;;-1.10;99.90;;;;;;5085449;28;20063;-79
2022/03/05 04:23:25;;;;;;;34.75;18.95;;;-1.10;99.90;;;;;;5060287;28;20040;-80
2022/03/05 04:25:51;;;;;;;40.38;20.60;;;-1.10;99.90;;;;;;5068587;28;20102;-79
2022/03/05 04:28:17;;;;;;;33.10;19.40;;;-1.00;99.90;;;;;;5070567;28;20043;-79
2022/03/05 04:30:43;;;;;;;35.92;19.80;;;-1.00;99.90;;;;;;5070957;28;20165;-79
2022/03/05 04:33:10;;;;;;;35.40;19.52;;;-1.00;99.90;;;;;;5069052;28;20394;-79
2022/03/05 04:35:36;;;;;;;32.60;18.70;;;-1.10;99.90;;;;;;5094187;28;20550;-79
2022/03/05 04:38:02;;;;;;;38.70;21.45;;;-1.10;99.90;;;;;;5086483;28;20055;-80
2022/03/05 04:40:28;;;;;;;37.72;19.38;;;-1.10;99.90;;;;;;5068325;28;20124;-80
2022/03/05 04:42:53;;;;;;;34.60;19.95;;;-1.10;99.90;;;;;;5069286;28;20127;-79
2022/03/05 04:45:19;;;;;;;39.60;20.67;;;-1.20;99.90;;;;;;5086910;28;20040;-80
2022/03/05 04:47:45;;;;;;;39.30;20.40;;;-1.20;99.90;;;;;;5069593;28;20046;-79
2022/03/05 04:50:10;;;;;;;41.80;20.90;;;-1.30;99.90;;;;;;5068925;28;20909;-80
2022/03/05 04:52:38;;;;;;;32.55;20.27;;;-1.40;99.90;;;;;;5069679;28;20047;-79
2022/03/05 04:55:06;;;;;;;33.00;19.92;;;-1.40;99.90;;;;;;5090321;28;20044;-79
2022/03/05 04:57:32;;;;;;;35.97;19.20;;;-1.50;99.90;;;;;;5069922;28;20139;-79
2022/03/05 04:59:58;;;;;;;39.08;19.00;;;-1.60;99.90;;;;;;5071496;28;20043;-80
2022/03/05 05:02:24;;;;;;;35.90;20.63;;;-1.60;99.90;;;;;;5069853;28;20048;-79
2022/03/05 05:04:50;;;;;;;39.47;20.45;;;-1.60;99.90;;;;;;5097924;28;20043;-79
2022/03/05 05:07:15;;;;;;;32.10;20.23;;;-1.60;99.90;;;;;;5069083;28;20458;-79
2022/03/05 05:09:42;;;;;;;31.13;19.95;;;-1.60;99.90;;;;;;5069651;28;20122;-79
2022/03/05 05:12:10;;;;;;;39.97;20.58;;;-1.60;99.90;;;;;;5070767;28;20405;-79
2022/03/05 05:14:36;;;;;;;37.67;19.75;;;-1.60;99.90;;;;;;5071355;28;20070;-79
2022/03/05 05:17:02;;;;;;;36.63;21.77;;;-1.70;99.90;;;;;;5069811;28;20047;-79
2022/03/05 05:19:27;;;;;;;37.47;21.80;;;-1.70;99.90;;;;;;5068526;28;20687;-79
2022/03/05 05:22:05;;;;;;;49.15;22.83;;;-1.70;99.90;;;;;;5103231;28;20043;-79
2022/03/05 05:24:36;;;;;;;38.77;22.43;;;-1.80;99.90;;;;;;5068954;28;20047;-79
2022/03/05 05:27:03;;;;;;;40.45;22.15;;;-1.80;99.90;;;;;;5072581;28;20043;-79
2022/03/05 05:29:30;;;;;;;34.25;22.52;;;-1.80;99.90;;;;;;5067331;28;20089;-79
2022/03/05 05:31:56;;;;;;;37.53;22.80;;;-1.70;99.90;;;;;;5069050;28;20492;-79
2022/03/05 05:34:23;;;;;;;38.33;21.90;;;-1.70;99.90;;;;;;5085237;28;20113;-79
2022/03/05 05:36:49;;;;;;;37.88;22.02;;;-1.70;99.90;;;;;;5067813;28;20568;-79
2022/03/05 05:39:15;;;;;;;40.72;23.60;;;-1.70;99.90;;;;;;5067983;28;20048;-79
2022/03/05 05:41:41;;;;;;;38.42;24.15;;;-1.70;99.90;;;;;;5070483;28;20059;-79
2022/03/05 05:44:11;;;;;;;37.83;23.27;;;-1.70;99.90;;;;;;5069517;28;20101;-80
2022/03/05 05:46:37;;;;;;;36.70;23.88;;;-1.70;99.90;;;;;;5065402;28;20044;-79
2022/03/05 05:49:03;;;;;;;39.47;24.05;;;-1.80;99.90;;;;;;5070116;28;20044;-79
2022/03/05 05:51:29;;;;;;;40.85;23.33;;;-1.80;99.90;;;;;;5069940;28;20489;-79
2022/03/05 05:53:56;;;;;;;32.67;21.75;;;-1.80;99.90;;;;;;5070801;28;20055;-79
2022/03/05 05:56:22;;;;;;;34.75;20.77;;;-1.80;99.90;;;;;;5073810;28;20082;-79
2022/03/05 05:58:49;;;;;;;37.63;23.05;;;-1.80;99.90;;;;;;5071916;28;20048;-79
2022/03/05 06:01:15;;;;;;;41.15;21.85;;;-1.80;99.90;;;;;;5067923;28;20082;-79
2022/03/05 06:03:42;;;;;;;44.15;23.50;;;-1.80;99.90;;;;;;5068460;28;20516;-84
2022/03/05 06:06:08;;;;;;;37.65;22.30;;;-1.70;99.90;;;;;;5102881;27;20082;-79
2022/03/05 06:08:33;;;;;;;28.52;19.77;;;-1.70;99.90;;;;;;5106191;27;20098;-79
2022/03/05 06:11:00;;;;;;;37.97;21.23;;;-1.70;99.90;;;;;;5088494;28;20048;-79
2022/03/05 06:13:26;;;;;;;36.45;22.52;;;-1.80;99.90;;;;;;5071135;28;20498;-79
2022/03/05 06:15:52;;;;;;;37.55;21.45;;;-1.70;99.90;;;;;;5088264;28;20083;-79
2022/03/05 06:18:18;;;;;;;40.95;22.70;;;-1.70;99.90;;;;;;5107494;27;20040;-79
2022/03/05 06:20:43;;;;;;;38.55;24.13;;;-1.70;99.90;;;;;;5083569;28;20535;-79
2022/03/05 06:23:09;;;;;;;35.72;22.60;;;-1.70;99.90;;;;;;5092270;28;20048;-79
2022/03/05 06:25:35;;;;;;;38.47;22.90;;;-1.70;99.90;;;;;;5107323;27;20036;-79
2022/03/05 06:28:01;;;;;;;40.55;23.50;;;-1.60;99.90;;;;;;5073056;28;20079;-79
2022/03/05 06:30:27;;;;;;;34.45;22.73;;;-1.60;99.90;;;;;;5067577;28;20157;-79
2022/03/05 06:32:52;;;;;;;33.47;20.90;;;-1.50;99.90;;;;;;5102974;28;20044;-79
2022/03/05 06:35:18;;;;;;;34.33;21.33;;;-1.40;99.90;;;;;;5090875;28;20051;-79
2022/03/05 06:37:45;;;;;;;37.55;21.30;;;-1.40;99.90;;;;;;5089776;28;20055;-79
2022/03/05 06:40:11;;;;;;;38.17;22.17;;;-1.30;99.90;;;;;;5106047;27;20055;-79
2022/03/05 06:42:39;;;;;;;34.50;22.25;;;-1.20;99.90;;;;;;5066847;28;20435;-79
2022/03/05 06:45:05;;;;;;;41.87;24.70;;;-1.20;99.90;;;;;;5070910;28;20413;-79
2022/03/05 06:47:31;;;;;;;39.47;22.63;;;-1.10;99.90;;;;;;5071975;28;20036;-79
2022/03/05 06:49:57;;;;;;;41.22;21.48;;;-1.00;99.90;;;;;;5071621;28;20051;-79
2022/03/05 06:52:23;;;;;;;32.15;20.95;;;-0.90;99.90;;;;;;5105612;27;20055;-79
2022/03/05 06:54:49;;;;;;;35.25;19.52;;;-0.90;99.90;;;;;;5086332;28;20051;-78
2022/03/05 06:57:15;;;;;;;40.20;20.77;;;-0.80;99.90;;;;;;5072472;28;20143;-78
2022/03/05 06:59:41;;;;;;;31.80;20.30;;;-0.70;99.90;;;;;;5073979;28;20688;-79
2022/03/05 07:02:07;;;;;;;36.80;19.92;;;-0.60;99.90;;;;;;5060980;28;20093;-79
2022/03/05 07:04:33;;;;;;;34.55;20.92;;;-0.50;99.90;;;;;;5106329;27;20052;-79
2022/03/05 07:06:59;;;;;;;34.03;20.33;;;-0.40;99.90;;;;;;5072380;28;20374;-78
2022/03/05 07:09:24;;;;;;;29.70;19.67;;;-0.40;99.90;;;;;;5072879;28;20047;-79
2022/03/05 07:11:50;;;;;;;30.00;20.42;;;-0.30;99.90;;;;;;5071695;28;20071;-79
2022/03/05 07:14:16;;;;;;;36.67;20.80;;;-0.30;99.90;;;;;;5075522;28;20493;-79
2022/03/05 07:16:41;;;;;;;34.03;21.58;;;-0.20;99.90;;;;;;5104996;27;20040;-79
2022/03/05 07:19:07;;;;;;;33.08;19.45;;;-0.10;99.90;;;;;;5071817;28;20475;-79
2022/03/05 07:21:33;;;;;;;31.67;20.88;;;0.00;99.90;;;;;;5104741;27;20042;-79
2022/03/05 07:23:59;;;;;;;40.65;22.48;;;0.00;99.90;;;;;;5073993;28;20151;-79
2022/03/05 07:26:25;;;;;;;31.00;19.35;;;0.00;99.90;;;;;;5088764;28;20124;-79
2022/03/05 07:28:50;;;;;;;31.55;19.90;;;0.10;99.90;;;;;;5073441;28;20420;-80
2022/03/05 07:31:16;;;;;;;40.80;19.70;;;0.10;99.90;;;;;;5068146;28;20097;-79
2022/03/05 07:33:42;;;;;;;31.17;19.90;;;0.20;99.90;;;;;;5106950;27;20484;-79
2022/03/05 07:36:08;;;;;;;29.58;20.80;;;0.20;99.90;;;;;;5069577;28;20044;-79
2022/03/05 07:38:34;;;;;;;39.78;21.95;;;0.30;99.90;;;;;;5090427;28;20055;-80
2022/03/05 07:41:00;;;;;;;33.60;19.33;;;0.30;99.90;;;;;;5069567;28;20063;-78
2022/03/05 07:43:26;;;;;;;40.13;20.17;;;0.30;99.90;;;;;;5069978;28;20501;-79
2022/03/05 07:45:51;;;;;;;39.45;22.33;;;0.30;99.90;;;;;;5073626;28;20090;-80
2022/03/05 07:48:21;;;;;;;39.30;22.20;;;0.40;99.90;;;;;;5110138;27;20052;-79
2022/03/05 07:50:51;;;;;;;35.67;22.02;;;0.40;99.90;;;;;;5071623;28;20056;-79
2022/03/05 07:53:18;;;;;;;33.75;21.42;;;0.50;99.90;;;;;;5071323;28;20207;-79
2022/03/05 07:55:43;;;;;;;33.17;21.73;;;0.50;99.90;;;;;;5072157;28;20048;-80
2022/03/05 07:58:09;;;;;;;33.72;21.48;;;0.60;99.90;;;;;;5056189;28;20105;-79
2022/03/05 08:00:35;;;;;;;35.42;23.10;;;0.60;99.90;;;;;;5076850;28;20114;-79
2022/03/05 08:03:00;;;;;;;39.13;22.45;;;0.70;99.90;;;;;;5071905;28;20040;-80
2022/03/05 08:05:27;;;;;;;42.17;23.02;;;0.80;99.90;;;;;;5068174;28;20103;-82
2022/03/05 08:07:55;;;;;;;39.33;22.65;;;0.90;99.90;;;;;;5070523;28;20155;-79
2022/03/05 08:10:21;;;;;;;39.65;24.92;;;1.00;99.90;;;;;;5090364;28;20048;-79
2022/03/05 08:12:47;;;;;;;37.15;22.70;;;1.00;99.90;;;;;;5073029;28;20127;-79
2022/03/05 08:15:13;;;;;;;38.67;21.52;;;1.10;99.90;;;;;;5072534;28;20058;-79
2022/03/05 08:17:56;;;;;;;40.80;23.70;;;1.10;99.90;;;;;;5079285;28;20074;-78
2022/03/05 08:20:24;;;;;;;39.78;23.30;;;1.10;99.90;;;;;;5096166;27;20512;-78
2022/03/05 08:22:50;;;;;;;38.38;23.95;;;1.20;99.90;;;;;;5065120;28;20044;-80
2022/03/05 08:25:16;;;;;;;39.95;24.58;;;1.20;99.90;;;;;;5065395;28;20112;-79
2022/03/05 08:27:42;;;;;;;39.33;24.48;;;1.20;99.90;;;;;;5098031;27;20044;-78
2022/03/05 08:30:08;;;;;;;42.55;24.52;;;1.30;99.90;;;;;;5064838;28;20052;-79
2022/03/05 08:32:34;;;;;;;43.42;23.05;;;1.30;99.90;;;;;;5063140;28;20052;-79
2022/03/05 08:35:00;;;;;;;42.05;24.63;;;1.40;99.90;;;;;;5098727;27;20092;-79
2022/03/05 08:37:27;;;;;;;41.65;25.65;;;1.40;99.90;;;;;;5065383;28;20066;-79
2022/03/05 08:39:54;;;;;;;41.53;23.90;;;1.50;99.90;;;;;;5095119;27;20787;-77
2022/03/05 08:42:19;;;;;;;45.97;26.52;;;1.60;99.90;;;;;;5063281;28;21164;-79
2022/03/05 08:44:45;;;;;;;44.13;25.08;;;1.60;99.90;;;;;;5064309;28;20048;-78
2022/03/05 08:47:11;;;;;;;41.33;26.23;;;1.70;99.90;;;;;;5098669;27;20052;-77
2022/03/05 08:49:37;;;;;;;46.45;26.10;;;1.80;99.90;;;;;;5061676;28;20500;-80
2022/03/05 08:52:10;;;;;;;48.67;29.55;;;1.80;99.90;;;;;;5080549;27;20453;-73
2022/03/05 08:54:35;;;;;;;56.92;29.00;;;1.90;99.90;;;;;;5054431;28;20214;-70
2022/03/05 08:57:02;;;;;;;43.67;27.85;;;2.00;99.90;;;;;;5052519;28;20044;-73
2022/03/05 08:59:29;;;;;;;46.83;27.35;;;2.00;99.90;;;;;;5052301;28;20082;-70
2022/03/05 09:01:55;;;;;;;54.38;28.58;;;2.10;99.90;;;;;;5053998;28;20391;-70
2022/03/05 09:04:21;;;;;;;47.03;27.98;;;2.20;99.90;;;;;;5053955;28;20049;-72
2022/03/05 09:06:48;;;;;;;50.22;28.75;;;2.30;99.90;;;;;;5055120;28;20122;-71
2022/03/05 09:09:13;;;;;;;49.05;28.60;;;2.40;99.90;;;;;;5052746;28;20048;-71
2022/03/05 09:11:39;;;;;;;50.15;27.35;;;2.60;99.90;;;;;;5053518;28;20300;-71
2022/03/05 09:14:07;;;;;;;51.55;27.08;;;2.60;99.90;;;;;;5053223;28;20103;-71
2022/03/05 09:16:36;;;;;;;45.35;28.30;;;2.70;99.90;;;;;;5053713;28;20044;-71
2022/03/05 09:19:03;;;;;;;47.90;28.63;;;2.70;99.90;;;;;;5036449;28;20041;-71
2022/03/05 09:21:29;;;;;;;46.40;28.90;;;2.90;99.90;;;;;;5053173;28;20164;-72
2022/03/05 09:23:54;;;;;;;45.40;27.55;;;3.00;99.90;;;;;;5053411;28;20049;-71
2022/03/05 09:26:20;;;;;;;53.75;30.23;;;3.10;99.90;;;;;;5053153;28;20040;-71
2022/03/05 09:28:46;;;;;;;51.00;29.60;;;3.20;99.90;;;;;;5059009;28;20101;-72
2022/03/05 09:31:12;;;;;;;45.42;26.48;;;3.30;99.90;;;;;;5056572;28;20036;-71
2022/03/05 09:33:37;;;;;;;50.10;27.83;;;3.40;99.90;;;;;;5058889;28;20181;-72
2022/03/05 09:36:03;;;;;;;49.63;28.27;;;3.40;99.90;;;;;;5057893;28;20052;-71
2022/03/05 09:38:29;;;;;;;51.58;28.90;;;3.50;99.90;;;;;;5059577;28;20033;-72
2022/03/05 09:40:55;;;;;;;51.80;30.17;;;3.50;99.90;;;;;;5057904;28;20044;-71
2022/03/05 09:43:23;;;;;;;59.60;31.80;;;3.50;99.90;;;;;;5057948;28;20051;-72
2022/03/05 09:45:49;;;;;;;48.35;28.63;;;3.60;99.90;;;;;;5052058;28;20044;-71
2022/03/05 09:48:16;;;;;;;53.15;29.10;;;3.60;99.90;;;;;;5031981;28;20049;-72
2022/03/05 09:50:42;;;;;;;62.65;33.08;;;3.70;99.90;;;;;;5050829;28;20052;-71
2022/03/05 09:53:08;;;;;;;52.30;29.98;;;3.90;99.90;;;;;;5053269;28;20124;-71
2022/03/05 09:55:34;;;;;;;51.28;28.92;;;3.90;99.90;;;;;;5051555;28;20475;-71
2022/03/05 09:58:00;;;;;;;57.28;30.50;;;3.90;99.90;;;;;;5050646;28;20049;-71
2022/03/05 10:00:26;;;;;;;53.97;31.45;;;3.80;99.90;;;;;;5052339;28;20048;-71
2022/03/05 10:02:52;;;;;;;52.97;29.08;;;4.00;99.90;;;;;;5041220;28;20108;-72
2022/03/05 10:05:24;;;;;;;53.47;31.77;;;4.10;99.90;;;;;;5038684;28;20045;-72
2022/03/05 10:08:02;;;;;;;56.65;29.30;;;4.20;99.90;;;;;;5038351;28;20041;-72
2022/03/05 10:10:38;;;;;;;53.92;30.20;;;4.20;99.90;;;;;;5037241;28;20099;-72
2022/03/05 10:13:17;;;;;;;56.50;31.30;;;4.20;99.90;;;;;;5021344;28;20045;-72
2022/03/05 10:15:44;;;;;;;52.60;27.63;;;4.20;99.90;;;;;;5039605;28;20158;-72
2022/03/05 10:18:10;;;;;;;52.35;29.27;;;4.20;99.90;;;;;;5037158;28;20132;-72
2022/03/05 10:20:44;;;;;;;55.47;31.38;;;4.40;99.90;;;;;;5038718;28;20486;-72
2022/03/05 10:23:11;;;;;;;58.10;30.40;;;4.60;99.90;;;;;;5036107;28;20040;-73
2022/03/05 10:25:46;;;;;;;56.03;31.65;;;4.60;99.90;;;;;;5021504;28;20056;-72
2022/03/05 10:28:15;;;;;;;57.47;29.95;;;4.60;99.90;;;;;;5037831;28;20128;-72
2022/03/05 10:30:53;;;;;;;56.88;32.67;;;4.70;99.90;;;;;;5038238;28;20037;-71
2022/03/05 10:33:29;;;;;;;58.08;30.83;;;4.80;99.90;;;;;;5044699;28;20076;-71
2022/03/05 10:35:58;;;;;;;54.80;29.52;;;4.90;99.90;;;;;;5041961;28;20041;-72
2022/03/05 10:38:25;;;;;;;;;;;5.00;99.90;;;;;;5045271;28;20040;-72
2022/03/05 10:40:56;;;;;;;58.95;32.53;;;4.90;99.90;;;;;;5041675;28;19920;-72
2022/03/05 10:43:23;;;;;;;60.20;32.08;;;4.90;99.90;;;;;;5041246;28;20429;-71
2022/03/05 10:45:58;;;;;;;58.95;32.97;;;5.00;99.90;;;;;;5042619;28;20518;-71
2022/03/05 10:48:28;;;;;;;51.13;29.00;;;5.00;99.90;;;;;;5041775;28;20048;-71
2022/03/05 10:51:09;;;;;;;53.58;31.30;;;5.10;99.90;;;;;;5040611;28;20052;-71
2022/03/05 10:53:36;;;;;;;48.13;29.27;;;5.30;99.90;;;;;;5041695;28;20041;-72
2022/03/05 10:56:24;;;;;;;55.13;30.80;;;5.30;99.90;;;;;;5042461;28;20041;-71
2022/03/05 10:59:10;;;;;;;48.05;29.52;;;5.20;99.90;;;;;;5044545;28;20048;-72
2022/03/05 11:01:42;;;;;;;57.05;30.70;;;5.30;99.90;;;;;;5043140;28;20053;-72
2022/03/05 11:04:10;;;;;;;55.72;30.42;;;5.30;99.90;;;;;;5043265;28;20051;-72
2022/03/05 11:06:38;;;;;;;51.58;28.65;;;5.40;99.90;;;;;;5043066;28;20048;-72
2022/03/05 11:09:12;;;;;;;52.30;30.77;;;5.50;99.90;;;;;;5042757;28;20127;-71
2022/03/05 11:11:40;;;;;;;48.75;29.55;;;5.50;99.90;;;;;;5044008;28;20099;-71
2022/03/05 11:14:11;;;;;;;57.58;31.77;;;5.60;99.90;;;;;;5041654;28;20495;-71
2022/03/05 11:16:37;;;;;;;59.72;31.85;;;5.50;99.90;;;;;;5059486;28;20049;-71
2022/03/05 11:19:03;;;;;;;61.97;32.15;;;5.50;99.90;;;;;;5042047;28;20025;-71
2022/03/05 11:21:30;;;;;;;62.33;33.85;;;5.70;99.90;;;;;;5042134;28;20045;-71
2022/03/05 11:23:57;;;;;;;62.83;31.65;;;5.80;99.90;;;;;;5043867;28;20493;-71
2022/03/05 11:26:24;;;;;;;58.20;33.00;;;6.00;99.90;;;;;;5040090;28;20517;-71
2022/03/05 11:28:51;;;;;;;62.45;31.85;;;6.00;99.90;;;;;;5041756;28;20048;-71
2022/03/05 11:31:31;;;;;;;54.28;30.85;;;6.00;99.90;;;;;;5040625;28;20120;-71
2022/03/05 11:34:12;;;;;;;51.08;30.55;;;6.10;99.90;;;;;;5039281;28;21074;-72
2022/03/05 11:36:39;;;;;;;62.13;32.90;;;6.20;99.90;;;;;;5041743;28;20514;-72
2022/03/05 11:39:17;;;;;;;55.13;31.55;;;6.30;99.90;;;;;;5040385;28;20037;-72
2022/03/05 11:42:02;;;;;;;53.63;31.27;;;6.30;99.90;;;;;;5043367;28;20048;-73
2022/03/05 11:44:36;;;;;;;53.97;29.02;;;6.40;99.90;;;;;;5041555;28;20048;-72
2022/03/05 11:47:23;;;;;;;61.00;34.90;;;6.50;99.90;;;;;;5041769;28;20124;-72
2022/03/05 11:49:58;;;;;;;63.95;31.52;;;6.40;99.90;;;;;;5037664;28;20710;-73
2022/03/05 11:52:43;;;;;;;58.75;33.15;;;6.30;99.90;;;;;;5033795;28;20412;-72
2022/03/05 11:55:14;;;;;;;58.55;33.33;;;6.50;99.90;;;;;;5040522;28;20040;-73
2022/03/05 11:57:53;;;;;;;52.17;29.65;;;6.60;99.90;;;;;;5042891;28;20045;-72
2022/03/05 12:00:20;;;;;;;64.53;33.20;;;6.60;99.90;;;;;;5041634;28;20433;-73
2022/03/05 12:02:48;;;;;;;61.25;32.55;;;6.60;99.90;;;;;;5034581;28;20086;-72
2022/03/05 12:05:38;;;;;;;59.38;30.98;;;6.70;99.90;;;;;;5041332;28;20075;-72
2022/03/05 12:08:08;;;;;;;59.47;32.20;;;6.60;99.90;;;;;;5041766;28;20534;-73
2022/03/05 12:10:35;;;;;;;62.70;34.10;;;6.70;99.90;;;;;;5041683;28;20041;-73
2022/03/05 12:13:09;;;;;;;56.28;32.17;;;6.80;99.90;;;;;;5040544;28;20041;-73
2022/03/05 12:15:44;;;;;;;54.35;32.05;;;6.90;99.90;;;;;;5042601;28;20094;-73
2022/03/05 12:18:12;;;;;;;57.45;34.58;;;7.00;99.90;;;;;;5042032;28;20044;-72
2022/03/05 12:20:40;;;;;;;67.22;33.40;;;7.10;99.90;;;;;;5041338;28;20056;-70
2022/03/05 12:23:17;;;;;;;56.38;30.92;;;7.10;99.90;;;;;;5040928;28;20497;-71
2022/03/05 12:25:45;;;;;;;49.63;30.92;;;7.10;99.90;;;;;;5039249;28;20068;-70
2022/03/05 12:28:15;;;;;;;60.05;31.88;;;7.20;99.90;;;;;;5039355;28;20126;-71
2022/03/05 12:30:42;;;;;;;57.92;33.00;;;7.10;99.90;;;;;;5057695;28;20127;-70
2022/03/05 12:33:13;;;;;;;54.47;33.67;;;7.20;99.90;;;;;;5040715;28;20080;-69